Time;durP1;ratioP1;P1;durP2;ratioP2;P2;SDS_P1;SDS_P2;PMS_P1;PMS_P2;Temp;Humidity;BMP_temperature;BMP_pressure;BME280_temperature;BME280_humidity;BME280_pressure;Samples;Min_cycle;Max_cycle;Signal;HPM_P1;HPM_P2
2023/04/10 00:00:06;;;;;;;9.60;7.63;;;;;;;7.78;100.00;100699.75;5054769;28;20043;-72
2023/04/10 00:02:32;;;;;;;10.57;7.88;;;;;;;7.68;100.00;100686.31;5072347;28;20048;-72
2023/04/10 00:04:58;;;;;;;9.88;7.95;;;;;;;7.34;100.00;100640.91;5073089;28;20032;-73
2023/04/10 00:07:24;;;;;;;11.05;8.38;;;;;;;7.55;100.00;100658.50;5072523;28;20486;-73
2023/04/10 00:09:49;;;;;;;9.20;7.90;;;;;;;7.54;100.00;100685.53;5072896;28;20024;-73
2023/04/10 00:12:15;;;;;;;10.32;7.50;;;;;;;7.08;100.00;100595.50;5072095;28;20220;-72
2023/04/10 00:14:41;;;;;;;10.52;7.47;;;;;;;7.20;100.00;100590.41;5054102;28;20422;-72
2023/04/10 00:17:06;;;;;;;8.57;7.22;;;;;;;7.44;100.00;100599.56;5054015;28;20028;-74
2023/04/10 00:19:32;;;;;;;9.13;7.20;;;;;;;7.22;100.00;100592.94;5072673;28;20458;-72
2023/04/10 00:21:57;;;;;;;9.65;7.60;;;;;;;6.80;100.00;100510.53;5054293;28;20032;-75
2023/04/10 00:24:23;;;;;;;9.55;7.82;;;;;;;7.17;100.00;100570.19;5053953;28;20414;-73
2023/04/10 00:26:49;;;;;;;8.48;7.32;;;;;;;7.65;100.00;100638.22;5054332;28;20024;-73
2023/04/10 00:29:14;;;;;;;9.80;8.00;;;;;;;7.58;100.00;100653.47;5071966;28;20383;-74
2023/04/10 00:31:40;;;;;;;9.10;7.38;;;;;;;7.54;100.00;100651.78;5053915;28;20056;-72
2023/04/10 00:34:05;;;;;;;11.55;8.40;;;;;;;7.35;100.00;100635.84;5054001;28;20106;-72
2023/04/10 00:36:31;;;;;;;10.00;8.10;;;;;;;7.52;100.00;100640.84;5054140;28;20028;-73
2023/04/10 00:38:58;;;;;;;10.05;7.90;;;;;;;7.42;100.00;100619.81;5072243;28;20024;-72
2023/04/10 00:41:24;;;;;;;10.23;8.13;;;;;;;7.16;100.00;100605.59;5070320;28;20432;-72
2023/04/10 00:43:49;;;;;;;10.98;8.40;;;;;;;7.56;100.00;100625.66;5071933;28;20111;-72
2023/04/10 00:46:15;;;;;;;10.40;8.00;;;;;;;7.39;100.00;100641.75;5071320;28;20025;-74
2023/04/10 00:48:40;;;;;;;10.73;8.48;;;;;;;7.52;100.00;100628.19;5053401;28;20058;-72
2023/04/10 00:51:06;;;;;;;12.35;8.80;;;;;;;7.09;100.00;100571.09;5052741;28;20032;-72
2023/04/10 00:53:32;;;;;;;11.07;8.70;;;;;;;7.42;100.00;100629.06;5068918;28;20678;-73
2023/04/10 00:55:59;;;;;;;11.32;8.90;;;;;;;7.16;100.00;100611.50;5070966;28;20434;-73
2023/04/10 00:58:25;;;;;;;10.77;8.32;;;;;;;6.94;100.00;100544.19;5053524;28;20029;-74
2023/04/10 01:00:51;;;;;;;10.77;8.50;;;;;;;7.00;100.00;100547.53;5053906;28;20059;-72
2023/04/10 01:03:19;;;;;;;10.75;8.50;;;;;;;7.48;100.00;100616.41;5071247;28;20516;-72
2023/04/10 01:05:57;;;;;;;10.93;8.73;;;;;;;6.84;100.00;100537.47;5070407;28;20029;-72
2023/04/10 01:08:35;;;;;;;11.00;8.50;;;;;;;7.21;100.00;100619.06;5071392;28;20032;-72
2023/04/10 01:11:17;;;;;;;11.40;9.23;;;;;;;6.01;100.00;100440.13;5071630;28;20054;-71
2023/04/10 01:13:50;;;;;;;11.52;9.50;;;;;;;6.61;100.00;100529.16;5053927;28;20414;-72
2023/04/10 01:16:27;;;;;;;11.27;9.07;;;;;;;6.76;100.00;100529.94;5053400;28;20024;-71
2023/04/10 01:18:59;;;;;;;11.82;9.10;;;;;;;6.91;100.00;100597.28;5070907;28;20033;-72
2023/04/10 01:21:26;;;;;;;11.52;9.02;;;;;;;6.83;100.00;100564.41;5053243;28;20032;-72
2023/04/10 01:24:27;;;;;;;10.10;8.18;;;;;;;7.32;100.00;100600.47;5053524;28;20055;-71
2023/04/10 01:26:56;;;;;;;11.70;8.55;;;;;;;7.16;100.00;100603.06;5002649;28;20055;-73
2023/04/10 01:29:25;;;;;;;12.23;9.23;;;;;;;6.59;100.00;100516.53;5071163;28;20032;-73
2023/04/10 01:32:12;;;;;;;13.38;9.80;;;;;;;7.08;100.00;100595.50;5053248;28;20442;-73
2023/04/10 01:34:46;;;;;;;12.95;9.95;;;;;;;6.88;100.00;100594.75;5052473;28;20033;-72
2023/04/10 01:37:17;;;;;;;13.25;9.88;;;;;;;6.67;100.00;100522.41;5070744;28;20034;-72
2023/04/10 01:39:46;;;;;;;13.45;10.20;;;;;;;6.24;100.00;100444.25;5071216;28;20032;-71
2023/04/10 01:42:14;;;;;;;14.15;10.50;;;;;;;6.91;100.00;100593.03;5071004;28;20181;-72
2023/04/10 01:44:42;;;;;;;13.77;9.80;;;;;;;5.94;100.00;100443.47;5070933;28;20487;-71
2023/04/10 01:47:08;;;;;;;13.07;9.68;;;;;;;6.17;100.00;100506.53;5070704;28;20028;-72
2023/04/10 01:49:36;;;;;;;12.85;9.13;;;;;;;6.20;100.00;100488.84;5070612;28;20028;-71
2023/04/10 01:52:02;;;;;;;14.00;9.75;;;;;;;6.58;100.00;100590.59;5069660;28;20037;-72
2023/04/10 01:54:31;;;;;;;11.30;9.05;;;;;;;6.50;100.00;100564.53;5052601;28;20060;-72
2023/04/10 01:56:59;;;;;;;11.88;8.77;;;;;;;6.82;100.00;100592.22;5069329;28;20132;-71
2023/04/10 01:59:25;;;;;;;13.63;8.18;;;;;;;6.77;100.00;100599.00;5069428;28;20447;-71
2023/04/10 02:02:00;;;;;;;13.20;9.07;;;;;;;6.87;100.00;100580.44;5052583;28;20089;-71
2023/04/10 02:04:31;;;;;;;12.75;9.85;;;;;;;6.36;100.00;100568.75;5070879;28;20032;-71
2023/04/10 02:07:06;;;;;;;11.80;8.75;;;;;;;6.46;100.00;100590.63;5052204;28;20028;-71
2023/04/10 02:09:57;;;;;;;10.23;8.27;;;;;;;6.70;100.00;100561.94;5052600;28;20068;-71
2023/04/10 02:12:32;;;;;;;12.38;8.95;;;;;;;6.58;100.00;100575.44;5052778;28;20025;-72
2023/04/10 02:15:00;;;;;;;13.32;8.55;;;;;;;6.66;100.00;100583.00;5070495;28;20025;-71
2023/04/10 02:17:29;;;;;;;12.38;9.00;;;;;;;6.23;100.00;100481.28;5069290;28;20090;-71
2023/04/10 02:19:58;;;;;;;11.82;8.50;;;;;;;6.29;100.00;100559.53;5070589;28;20064;-70
2023/04/10 02:22:25;;;;;;;11.75;9.10;;;;;;;6.41;100.00;100578.84;5070587;28;20033;-73
2023/04/10 02:24:51;;;;;;;12.05;9.35;;;;;;;5.70;100.00;100485.53;5052475;28;20521;-73
2023/04/10 02:27:32;;;;;;;17.13;14.05;;;;;;;6.37;100.00;100564.56;5052387;28;20135;-71
2023/04/10 02:29:58;;;;;;;20.75;13.98;;;;;;;6.07;100.00;100547.75;5052136;28;20372;-71
2023/04/10 02:32:23;;;;;;;23.05;12.07;;;;;;;6.09;100.00;100568.78;5070369;28;20150;-71
2023/04/10 02:34:49;;;;;;;21.08;15.40;;;;;;;5.90;100.00;100481.34;5052087;28;20033;-71
2023/04/10 02:37:15;;;;;;;34.15;22.98;;;;;;;5.54;100.00;100464.50;5069995;28;20033;-71
2023/04/10 02:39:40;;;;;;;20.60;14.10;;;;;;;6.16;100.00;100555.31;5070054;28;20028;-72
2023/04/10 02:42:06;;;;;;;22.23;16.00;;;;;;;6.03;100.00;100578.88;5069914;28;20115;-72
2023/04/10 02:44:31;;;;;;;49.10;36.67;;;;;;;5.73;100.00;100503.16;5070255;28;20490;-72
2023/04/10 02:46:57;;;;;;;30.08;21.30;;;;;;;6.12;100.00;100568.78;5070403;28;20032;-72
2023/04/10 02:49:22;;;;;;;21.73;14.60;;;;;;;5.91;100.00;100558.69;5070552;28;20032;-73
2023/04/10 02:51:48;;;;;;;16.20;12.00;;;;;;;5.99;100.00;100573.00;5069996;28;20024;-72
2023/04/10 02:54:13;;;;;;;17.70;10.55;;;;;;;5.77;100.00;100504.84;5052130;28;20052;-71
2023/04/10 02:56:38;;;;;;;20.30;12.93;;;;;;;5.92;100.00;100586.44;5070446;28;20406;-72
2023/04/10 02:59:04;;;;;;;18.42;12.10;;;;;;;5.07;100.00;100410.72;5052073;28;20131;-72
2023/04/10 03:01:30;;;;;;;22.35;11.40;;;;;;;5.69;100.00;100550.25;5038097;28;20388;-71
2023/04/10 03:03:56;;;;;;;19.33;10.85;;;;;;;5.65;100.00;100532.59;5032043;28;20051;-72
2023/04/10 03:06:25;;;;;;;18.80;10.70;;;;;;;6.13;100.00;100558.72;5048674;28;20483;-71
2023/04/10 03:08:50;;;;;;;18.85;13.40;;;;;;;5.80;100.00;100566.22;5048807;28;20498;-72
2023/04/10 03:11:15;;;;;;;18.90;12.88;;;;;;;5.74;100.00;100546.06;5048384;28;20029;-70
2023/04/10 03:13:41;;;;;;;16.23;11.07;;;;;;;5.13;100.00;100401.47;5031369;28;20043;-71
2023/04/10 03:16:06;;;;;;;18.90;12.13;;;;;;;5.39;100.00;100459.44;5030155;28;20462;-72
2023/04/10 03:18:33;;;;;;;15.07;11.13;;;;;;;6.12;100.00;100557.00;5053355;28;20104;-72
2023/04/10 03:21:00;;;;;;;18.10;12.18;;;;;;;5.88;100.00;100551.97;5035662;28;20036;-70
2023/04/10 03:23:26;;;;;;;18.98;12.05;;;;;;;5.51;100.00;100477.09;5053678;28;20094;-72
2023/04/10 03:25:54;;;;;;;18.75;11.40;;;;;;;5.38;100.00;100482.16;5035045;28;20706;-72
2023/04/10 03:28:21;;;;;;;24.00;19.17;;;;;;;6.20;100.00;100546.09;5052981;28;20495;-70
2023/04/10 03:30:47;;;;;;;24.38;14.82;;;;;;;5.77;100.00;100535.13;5034635;28;20060;-71
2023/04/10 03:33:12;;;;;;;26.25;17.75;;;;;;;5.95;100.00;100543.56;5052664;28;20029;-71
2023/04/10 03:35:38;;;;;;;39.17;23.48;;;;;;;5.80;100.00;100537.66;5036437;28;20351;-73
2023/04/10 03:38:03;;;;;;;27.85;18.48;;;;;;;6.54;100.00;100537.56;5034348;28;20033;-72
2023/04/10 03:40:29;;;;;;;28.85;16.73;;;;;;;5.69;100.00;100527.56;5034586;28;20473;-72
2023/04/10 03:42:54;;;;;;;23.33;12.40;;;;;;;5.82;100.00;100543.53;5053139;28;20029;-73
2023/04/10 03:45:20;;;;;;;21.58;10.60;;;;;;;5.69;100.00;100536.78;5035512;28;20025;-74
2023/04/10 03:47:45;;;;;;;14.98;10.45;;;;;;;5.63;100.00;100524.19;5034676;28;20035;-74
2023/04/10 03:50:11;;;;;;;14.40;9.40;;;;;;;5.22;100.00;100517.41;5035453;28;20172;-73
2023/04/10 03:52:37;;;;;;;29.80;16.48;;;;;;;4.94;100.00;100548.41;5034941;28;20123;-74
2023/04/10 03:55:09;;;;;;;26.25;15.40;;;;;;;5.20;100.00;100574.53;5051898;28;20045;-73
2023/04/10 03:57:34;;;;;;;14.60;10.80;;;;;;;5.14;100.00;100566.94;5051931;28;20021;-74
2023/04/10 04:00:00;;;;;;;23.70;15.15;;;;;;;5.13;100.00;100565.25;5035028;28;20024;-72
2023/04/10 04:02:25;;;;;;;17.20;12.02;;;;;;;5.25;100.00;100560.25;5034908;28;20029;-72
2023/04/10 04:04:51;;;;;;;40.75;22.52;;;;;;;5.20;100.00;100564.44;5034881;28;20037;-73
2023/04/10 04:07:17;;;;;;;17.15;12.13;;;;;;;4.78;100.00;100560.91;5035669;28;20025;-76
2023/04/10 04:09:42;;;;;;;14.70;11.35;;;;;;;5.35;100.00;100596.41;5051660;28;20051;-75
2023/04/10 04:12:08;;;;;;;15.13;10.77;;;;;;;4.73;100.00;100490.41;5035337;28;20038;-74
2023/04/10 04:14:33;;;;;;;17.60;13.35;;;;;;;5.07;100.00;100529.13;5032209;28;20037;-74
2023/04/10 04:16:59;;;;;;;16.45;11.20;;;;;;;5.40;100.00;100564.50;5032568;28;20034;-75
2023/04/10 04:19:24;;;;;;;16.38;11.32;;;;;;;4.81;100.00;100487.91;5032740;28;20111;-73
2023/04/10 04:21:50;;;;;;;27.80;22.15;;;;;;;5.48;100.00;100567.03;5015003;28;20047;-72
2023/04/10 04:24:15;;;;;;;21.92;14.32;;;;;;;5.52;100.00;100597.31;5035467;28;21525;-73
2023/04/10 04:26:41;;;;;;;18.55;14.18;;;;;;;5.68;100.00;100578.00;5052053;28;20033;-71
2023/04/10 04:29:06;;;;;;;18.25;13.95;;;;;;;5.70;100.00;100583.88;5033987;28;20052;-73
2023/04/10 04:31:31;;;;;;;20.05;14.60;;;;;;;5.86;100.00;100585.63;5034923;28;20067;-75
2023/04/10 04:33:58;;;;;;;19.67;14.50;;;;;;;5.08;100.00;100500.56;5034576;28;20159;-73
2023/04/10 04:36:23;;;;;;;19.27;14.63;;;;;;;5.84;100.00;100570.47;5034859;28;20032;-74
2023/04/10 04:38:49;;;;;;;22.20;15.82;;;;;;;6.04;100.00;100570.50;5034506;28;20036;-74
2023/04/10 04:41:15;;;;;;;34.15;18.70;;;;;;;5.95;100.00;100547.75;5050711;28;20393;-74
2023/04/10 04:43:40;;;;;;;27.83;18.50;;;;;;;6.17;100.00;100571.31;5050758;28;20039;-75
2023/04/10 04:46:05;;;;;;;31.92;20.05;;;;;;;6.38;100.00;100500.59;5051130;28;20497;-72
2023/04/10 04:48:31;;;;;;;21.83;14.55;;;;;;;8.49;100.00;100581.06;5034849;28;20029;-78
2023/04/10 04:50:56;;;;;;;28.73;19.52;;;;;;;7.00;100.00;100575.34;5052013;28;20056;-74
2023/04/10 04:53:22;;;;;;;24.50;16.88;;;;;;;6.35;100.00;100554.47;5051258;28;20053;-74
2023/04/10 04:55:47;;;;;;;22.27;16.40;;;;;;;6.18;100.00;100550.28;5033876;28;20491;-74
2023/04/10 04:58:12;;;;;;;20.02;14.18;;;;;;;6.19;100.00;100479.59;5033790;28;20036;-74
2023/04/10 05:00:38;;;;;;;23.80;14.30;;;;;;;5.68;100.00;100383.81;5034153;28;20029;-76
2023/04/10 05:03:05;;;;;;;22.13;15.38;;;;;;;6.95;100.00;100556.81;5050772;28;20392;-74
2023/04/10 05:05:30;;;;;;;23.10;16.38;;;;;;;6.82;100.00;100549.28;5052044;28;20031;-73
2023/04/10 05:07:56;;;;;;;37.95;22.42;;;;;;;6.95;100.00;100549.22;5033352;28;20041;-74
2023/04/10 05:10:21;;;;;;;38.58;19.70;;;;;;;6.98;100.00;100545.84;5051213;28;20067;-74
2023/04/10 05:12:47;;;;;;;35.10;20.52;;;;;;;7.27;100.00;100545.72;5033399;28;20079;-74
2023/04/10 05:15:12;;;;;;;28.00;17.80;;;;;;;7.03;100.00;100538.25;5051143;28;20090;-72
2023/04/10 05:17:38;;;;;;;32.35;21.58;;;;;;;6.80;100.00;100458.34;5050117;28;20471;-74
2023/04/10 05:20:03;;;;;;;34.45;22.27;;;;;;;6.52;100.00;100479.50;5050353;28;20120;-75
2023/04/10 05:22:29;;;;;;;34.42;22.27;;;;;;;7.91;100.00;100534.28;5051664;28;20033;-74
2023/04/10 05:24:55;;;;;;;21.98;15.70;;;;;;;8.34;100.00;100537.31;5049952;28;20036;-74
2023/04/10 05:27:21;;;;;;;23.60;13.10;;;;;;;7.96;100.00;100449.03;5051465;28;20036;-74
2023/04/10 05:29:46;;;;;;;15.88;10.60;;;;;;;8.43;100.00;100512.72;5066828;28;20483;-74
2023/04/10 05:32:12;;;;;;;17.48;10.93;;;;;;;7.99;100.00;100470.94;5051419;28;20037;-74
2023/04/10 05:34:38;;;;;;;16.63;10.13;;;;;;;8.11;100.00;100527.38;5050963;28;20033;-75
2023/04/10 05:37:03;;;;;;;18.98;11.30;;;;;;;8.21;100.00;100496.03;5051285;28;20081;-76
2023/04/10 05:39:29;;;;;;;16.13;12.15;;;;;;;7.47;100.00;100420.78;5050408;28;20029;-75
2023/04/10 05:41:55;;;;;;;18.25;12.77;;;;;;;8.13;100.00;100479.22;5051390;28;20029;-75
2023/04/10 05:44:20;;;;;;;16.63;11.90;;;;;;;8.15;100.00;100513.81;5049994;28;20059;-75
2023/04/10 05:46:46;;;;;;;17.65;12.10;;;;;;;7.55;100.00;100440.97;5050066;28;20033;-74
2023/04/10 05:49:11;;;;;;;14.43;11.88;;;;;;;8.04;100.00;100497.91;5050060;28;20388;-74
2023/04/10 05:51:37;;;;;;;15.25;12.32;;;;;;;7.72;100.00;100460.22;5050047;28;20118;-75
2023/04/10 05:54:02;;;;;;;16.17;11.75;;;;;;;7.93;100.00;100390.00;5049549;28;20057;-75
2023/04/10 05:56:27;;;;;;;14.75;12.05;;;;;;;8.34;100.00;100411.50;5049370;28;20033;-75
2023/04/10 05:58:53;;;;;;;21.13;14.73;;;;;;;8.48;100.00;100406.25;5051102;28;20040;-74
2023/04/10 06:01:18;;;;;;;18.10;13.77;;;;;;;8.35;100.00;100418.25;5049946;28;20526;-75
2023/04/10 06:03:44;;;;;;;22.65;16.33;;;;;;;8.40;100.00;100387.78;5051036;28;20467;-75
2023/04/10 06:06:16;;;;;;;17.83;13.70;;;;;;;8.63;100.00;100462.66;5049192;28;20621;-75
2023/04/10 06:08:42;;;;;;;20.60;15.57;;;;;;;8.60;100.00;100470.28;5049757;28;20119;-74
2023/04/10 06:11:07;;;;;;;18.13;12.80;;;;;;;8.78;100.00;100456.53;5050536;28;20171;-75
2023/04/10 06:13:32;;;;;;;20.30;13.85;;;;;;;8.26;100.00;100443.66;5049958;28;20033;-75
2023/04/10 06:15:58;;;;;;;23.52;14.52;;;;;;;8.81;100.00;100435.41;5049406;28;20029;-73
2023/04/10 06:18:23;;;;;;;20.83;13.38;;;;;;;9.75;100.00;100443.22;5050097;28;20029;-74
2023/04/10 06:20:49;;;;;;;21.40;12.95;;;;;;;9.06;100.00;100315.00;5051164;28;20035;-74
2023/04/10 06:23:14;;;;;;;15.30;13.10;;;;;;;9.99;100.00;100435.16;5050742;28;20047;-75
2023/04/10 06:25:40;;;;;;;19.70;14.07;;;;;;;9.23;100.00;100302.88;5050803;28;20076;-75
2023/04/10 06:28:06;;;;;;;19.05;12.95;;;;;;;9.73;100.00;100442.41;5049829;28;20521;-75
2023/04/10 06:30:33;;;;;;;21.75;12.85;;;;;;;10.04;100.00;100410.50;5044474;28;20037;-75
2023/04/10 06:32:58;;;;;;;18.90;12.23;;;;;;;8.95;100.00;100349.84;5049787;28;20037;-74
2023/04/10 06:35:24;;;;;;;16.38;12.00;;;;;;;9.33;100.00;100431.25;5033369;28;20098;-74
2023/04/10 06:37:50;;;;;;;17.25;12.40;;;;;;;10.05;100.00;100424.91;5033196;28;20025;-74
2023/04/10 06:40:15;;;;;;;17.83;12.00;;;;;;;9.22;100.00;100316.41;5049824;28;20033;-74
2023/04/10 06:42:41;;;;;;;17.63;12.10;;;;;;;9.67;100.00;100365.50;5051161;28;20111;-74
2023/04/10 06:45:07;;;;;;;16.45;12.35;;;;;;;9.92;100.00;100420.94;5050589;28;20037;-74
2023/04/10 06:47:32;;;;;;;14.30;11.32;;;;;;;9.31;100.00;100345.00;5049144;28;20131;-73
2023/04/10 06:49:57;;;;;;;15.63;11.52;;;;;;;9.87;100.00;100415.06;5049400;28;20114;-74
2023/04/10 06:52:23;;;;;;;13.48;11.45;;;;;;;9.93;100.00;100374.34;5034715;28;20521;-74
2023/04/10 06:54:49;;;;;;;20.80;18.05;;;;;;;9.81;100.00;100420.25;5052958;28;20075;-75
2023/04/10 06:57:14;;;;;;;20.55;16.08;;;;;;;10.02;100.00;100351.28;5036818;28;20036;-74
2023/04/10 06:59:40;;;;;;;21.73;15.20;;;;;;;9.63;100.00;100422.31;5053182;28;20025;-75
2023/04/10 07:02:06;;;;;;;61.33;33.47;;;;;;;9.82;100.00;100365.25;5036804;28;20086;-74
2023/04/10 07:04:32;;;;;;;23.00;17.65;;;;;;;10.07;100.00;100413.00;5052526;28;20029;-74
2023/04/10 07:06:59;;;;;;;16.67;12.55;;;;;;;10.15;100.00;100375.63;5054344;28;20033;-74
2023/04/10 07:09:25;;;;;;;32.88;19.30;;;;;;;10.46;100.00;100401.22;5052910;28;20056;-74
2023/04/10 07:11:51;;;;;;;29.08;16.95;;;;;;;9.84;100.00;100353.38;5036514;28;20057;-74
2023/04/10 07:14:17;;;;;;;14.15;11.55;;;;;;;10.19;100.00;100419.59;5054212;28;20044;-74
2023/04/10 07:16:42;;;;;;;23.17;15.20;;;;;;;9.75;100.00;100302.75;5054172;28;20098;-75
2023/04/10 07:19:08;;;;;;;25.27;14.80;;;;;;;9.40;100.00;100295.81;5053951;28;20128;-75
2023/04/10 07:21:33;;;;;;;24.48;14.35;;;;;;;10.24;100.00;100402.56;5053609;28;20454;-74
2023/04/10 07:23:58;;;;;;;20.67;13.68;;;;;;;10.52;100.00;100413.00;5052367;28;20036;-73
2023/04/10 07:26:24;;;;;;;25.90;13.02;;;;;;;10.19;100.00;100417.03;5053776;28;20044;-73
2023/04/10 07:28:51;;;;;;;21.17;12.85;;;;;;;9.91;100.00;100296.50;5052647;28;20029;-73
2023/04/10 07:31:17;;;;;;;16.23;12.15;;;;;;;10.19;100.00;100345.91;5052903;28;20032;-74
2023/04/10 07:33:44;;;;;;;15.85;9.77;;;;;;;9.70;100.00;100296.94;5052392;28;20102;-73
2023/04/10 07:36:09;;;;;;;23.35;14.65;;;;;;;9.82;100.00;100339.84;5069029;28;20110;-74
2023/04/10 07:38:35;;;;;;;25.13;13.13;;;;;;;10.48;100.00;100388.53;5052603;28;20551;-73
2023/04/10 07:41:00;;;;;;;23.45;13.98;;;;;;;10.53;100.00;100396.88;5052180;28;20525;-74
2023/04/10 07:43:26;;;;;;;20.48;13.15;;;;;;;10.42;100.00;100380.13;5051412;28;20036;-73
2023/04/10 07:45:51;;;;;;;33.58;20.33;;;;;;;10.43;100.00;100397.06;5033946;28;20044;-73
2023/04/10 07:48:17;;;;;;;47.38;27.52;;;;;;;10.48;100.00;100358.03;5052366;28;20029;-73
2023/04/10 07:50:42;;;;;;;45.25;28.63;;;;;;;10.70;100.00;100390.56;5034168;28;20067;-73
2023/04/10 07:53:08;;;;;;;48.85;28.52;;;;;;;9.51;100.00;100283.75;5034954;28;20148;-73
2023/04/10 07:55:37;;;;;;;15.00;11.85;;;;;;;10.07;100.00;100336.81;5053821;28;20143;-75
2023/04/10 07:58:03;;;;;;;26.17;19.08;;;;;;;10.45;100.00;100404.66;5053663;28;20032;-74
2023/04/10 08:00:28;;;;;;;15.20;11.95;;;;;;;10.46;100.00;100402.09;5035456;28;20017;-75
2023/04/10 08:02:54;;;;;;;17.38;13.32;;;;;;;10.28;100.00;100331.31;5034641;28;20029;-74
2023/04/10 08:05:20;;;;;;;14.45;11.25;;;;;;;10.63;100.00;100405.97;5035088;28;20028;-74
2023/04/10 08:07:45;;;;;;;14.85;12.50;;;;;;;10.83;100.00;100408.94;5034900;28;20063;-75
2023/04/10 08:10:11;;;;;;;15.23;12.27;;;;;;;10.55;100.00;100337.50;5052834;28;20096;-73
2023/04/10 08:12:36;;;;;;;13.82;11.68;;;;;;;10.58;100.00;100403.53;5034041;28;20531;-72
2023/04/10 08:15:02;;;;;;;11.90;9.95;;;;;;;10.69;100.00;100395.69;5034402;28;20048;-72
2023/04/10 08:17:27;;;;;;;26.08;19.13;;;;;;;10.39;100.00;100339.56;5052736;28;20033;-72
2023/04/10 08:19:53;;;;;;;23.15;18.23;;;;;;;10.86;100.00;100416.47;5051980;28;20115;-72
2023/04/10 08:22:18;;;;;;;20.02;15.45;;;;;;;10.69;100.00;100388.06;5052143;28;20099;-74
2023/04/10 08:24:43;;;;;;;17.40;13.60;;;;;;;10.36;100.00;100329.44;5051748;28;20040;-73
2023/04/10 08:27:09;;;;;;;24.35;18.92;;;;;;;10.95;100.00;100395.94;5051873;28;20029;-72
2023/04/10 08:29:34;;;;;;;21.08;16.17;;;;;;;10.06;100.00;100298.75;5051396;28;20029;-72
2023/04/10 08:32:00;;;;;;;18.63;13.73;;;;;;;10.21;100.00;100336.56;5033840;28;20090;-72
2023/04/10 08:34:26;;;;;;;20.27;16.40;;;;;;;10.19;100.00;100351.00;5051844;28;20518;-72
2023/04/10 08:36:51;;;;;;;20.70;16.40;;;;;;;10.71;100.00;100404.97;5034373;28;20040;-74
2023/04/10 08:39:18;;;;;;;20.98;17.00;;;;;;;10.60;100.00;100342.50;5052670;28;20037;-74
2023/04/10 08:41:43;;;;;;;27.35;21.63;;;;;;;10.57;100.00;100333.22;5035001;28;20119;-74
2023/04/10 08:44:09;;;;;;;26.08;20.55;;;;;;;10.99;100.00;100402.63;5034718;28;20086;-74
2023/04/10 08:46:36;;;;;;;21.35;16.38;;;;;;;10.40;100.00;100292.91;5051750;28;20056;-74
2023/04/10 08:49:04;;;;;;;19.67;14.55;;;;;;;11.04;100.00;100405.91;5034155;28;20028;-74
2023/04/10 08:51:41;;;;;;;19.63;14.70;;;;;;;11.00;100.00;100389.88;5034564;28;20025;-75
2023/04/10 08:54:13;;;;;;;20.30;14.30;;;;;;;11.12;100.00;100386.19;5052047;28;20088;-74
2023/04/10 08:56:41;;;;;;;22.98;17.48;;;;;;;11.01;100.00;100333.00;5052223;28;20049;-74
2023/04/10 08:59:11;;;;;;;23.65;18.55;;;;;;;11.38;100.00;100370.28;5052158;28;20033;-76
2023/04/10 09:01:39;;;;;;;23.40;17.42;;;;;;;11.57;100.00;100377.44;5051773;28;20033;-74
2023/04/10 09:04:05;;;;;;;31.92;22.40;;;;;;;11.50;100.00;100370.00;5033977;28;20066;-74
2023/04/10 09:06:30;;;;;;;29.02;22.58;;;;;;;11.50;100.00;100365.75;5051799;28;20036;-75
2023/04/10 09:08:58;;;;;;;31.15;23.75;;;;;;;11.42;100.00;100376.97;5051755;28;20466;-74
2023/04/10 09:11:24;;;;;;;32.83;24.52;;;;;;;11.23;100.00;100297.72;5034751;28;20090;-74
2023/04/10 09:13:49;;;;;;;31.00;23.52;;;;;;;10.71;100.00;100264.25;5033584;28;20033;-74
2023/04/10 09:16:15;;;;;;;28.90;20.40;;;;;;;11.00;100.00;100269.47;5034300;28;20494;-74
2023/04/10 09:18:48;;;;;;;23.38;18.75;;;;;;;11.47;100.00;100350.53;5033937;28;20039;-75
2023/04/10 09:21:19;;;;;;;28.67;21.80;;;;;;;11.59;100.00;100351.94;5034203;28;20063;-74
2023/04/10 09:23:46;;;;;;;28.40;22.02;;;;;;;11.58;100.00;100350.25;5048829;28;20061;-75
2023/04/10 09:26:28;;;;;;;22.15;17.60;;;;;;;11.64;100.00;100343.31;5052064;28;20094;-73
2023/04/10 09:29:02;;;;;;;20.40;16.05;;;;;;;10.99;100.00;100281.34;5050565;28;20044;-73
2023/04/10 09:31:28;;;;;;;21.48;17.58;;;;;;;11.58;100.00;100348.56;5029741;28;20621;-75
2023/04/10 09:34:14;;;;;;;20.50;17.13;;;;;;;11.77;100.00;100331.94;5046406;28;20072;-73
2023/04/10 09:36:53;;;;;;;16.80;14.40;;;;;;;11.08;100.00;100259.94;5039822;28;20135;-72
2023/04/10 09:39:18;;;;;;;17.63;15.23;;;;;;;11.36;100.00;100263.44;5046529;28;20037;-75
2023/04/10 09:42:01;;;;;;;15.73;13.13;;;;;;;11.77;100.00;100311.56;5047037;28;20043;-75
2023/04/10 09:44:32;;;;;;;17.23;13.35;;;;;;;11.27;100.00;100246.69;5049660;28;20045;-75
2023/04/10 09:46:59;;;;;;;17.95;14.35;;;;;;;11.85;100.00;100317.28;5049339;28;20060;-74
2023/04/10 09:49:24;;;;;;;15.68;13.13;;;;;;;12.07;100.00;100292.88;5049273;28;20036;-75
2023/04/10 09:51:50;;;;;;;15.68;13.60;;;;;;;11.76;100.00;100296.31;5048844;28;20148;-71
2023/04/10 09:54:16;;;;;;;23.13;12.55;;;;;;;12.49;100.00;100224.44;5046514;28;20089;-76
2023/04/10 09:56:44;;;;;;;16.27;13.13;;;;;;;11.43;100.00;100210.66;5046500;28;20103;-75
2023/04/10 09:59:12;;;;;;;16.50;12.43;;;;;;;12.20;100.00;100291.63;5047291;28;20084;-75
2023/04/10 10:01:39;;;;;;;21.90;15.65;;;;;;;12.40;100.00;100274.91;5047789;28;20061;-75
2023/04/10 10:04:05;;;;;;;16.95;12.95;;;;;;;12.31;100.00;100270.06;5031826;28;20039;-75
2023/04/10 10:06:31;;;;;;;19.00;14.15;;;;;;;12.59;100.00;100270.91;5032057;28;20120;-75
2023/04/10 10:09:06;;;;;;;18.08;15.05;;;;;;;11.88;100.00;100138.88;5031990;28;20032;-75
2023/04/10 10:11:35;;;;;;;19.33;14.93;;;;;;;12.66;100.00;100264.69;5029428;28;20484;-75
2023/04/10 10:14:12;;;;;;;12.05;10.20;;;;;;;12.34;100.00;100241.94;5031500;28;20489;-75
2023/04/10 10:16:49;;;;;;;11.32;9.30;;;;;;;12.42;100.00;100250.19;5031497;28;20095;-74
2023/04/10 10:19:41;;;;;;;9.60;8.55;;;;;;;12.22;100.00;100173.50;5032057;28;20028;-75
2023/04/10 10:22:08;;;;;;;11.48;9.23;;;;;;;12.26;100.00;100182.72;5031102;28;20095;-76
2023/04/10 10:24:37;;;;;;;12.57;8.63;;;;;;;11.91;100.00;100154.06;5030935;28;20036;-76
2023/04/10 10:27:08;;;;;;;10.75;9.15;;;;;;;12.06;100.00;100153.56;5049675;28;20033;-75
2023/04/10 10:29:35;;;;;;;12.43;8.87;;;;;;;12.05;100.00;100168.91;5050722;28;20083;-74
2023/04/10 10:32:02;;;;;;;12.43;9.45;;;;;;;12.48;100.00;100216.84;5035141;28;20025;-75
2023/04/10 10:34:28;;;;;;;10.10;8.70;;;;;;;12.54;100.00;100171.56;5050390;28;20060;-76
2023/04/10 10:36:53;;;;;;;8.80;7.38;;;;;;;12.50;100.00;100241.41;5035606;28;20416;-75
2023/04/10 10:39:52;;;;;;;11.90;7.72;;;;;;;12.62;100.00;100227.41;5050735;28;20033;-75
2023/04/10 10:42:33;;;;;;;10.90;8.10;;;;;;;12.66;100.00;100219.63;5034092;28;20041;-74
2023/04/10 10:45:21;;;;;;;11.03;7.77;;;;;;;12.63;100.00;100213.81;5050914;28;20044;-77
2023/04/10 10:47:52;;;;;;;10.90;8.30;;;;;;;12.44;100.00;100129.41;5050837;28;20488;-75
2023/04/10 10:50:17;;;;;;;11.73;9.40;;;;;;;12.43;100.00;100126.91;5034547;28;20037;-74
2023/04/10 10:52:48;;;;;;;10.48;7.55;;;;;;;12.83;100.00;100212.28;5035228;28;20044;-74
2023/04/10 10:55:38;;;;;;;9.00;7.53;;;;;;;12.77;100.00;100191.22;5055291;28;20052;-74
2023/04/10 10:58:08;;;;;;;12.70;7.72;;;;;;;12.59;100.00;100125.50;5054026;28;20040;-75
2023/04/10 11:00:49;;;;;;;8.70;6.90;;;;;;;13.34;100.00;100190.94;5055203;28;20025;-75
2023/04/10 11:03:14;;;;;;;8.57;7.05;;;;;;;13.35;100.00;100182.41;5055200;28;20029;-76
2023/04/10 11:05:55;;;;;;;8.70;6.90;;;;;;;13.64;100.00;100179.63;5053506;28;20028;-75
2023/04/10 11:08:54;;;;;;;10.40;8.18;;;;;;;13.81;100.00;100170.44;5054909;28;20029;-74
2023/04/10 11:11:26;;;;;;;9.20;7.30;;;;;;;13.42;100.00;100062.09;5054793;28;20042;-75